This is the latest recevied weather packets stored in our database for station/object VA7SCH-13. If no packets are shown the sender has not sent any weather packets the latest 10 day(s).
| Time | Temp. | Humidity | Pressure | Rain* | Wind** | Luminosity | Snow |
|---|---|---|---|---|---|---|---|
| 1777714524 | 12.78° C | 57% | 1021.4 hPa | 0 mm | - | - | - |
| 1777710944 | 13.89° C | 52% | 1020.5 hPa | 0 mm | - | - | - |
| 1777710344 | 14.44° C | 52% | 1020.6 hPa | 0 mm | - | - | - |
| 1777708524 | 15° C | 51% | 1020.6 hPa | 0 mm | - | - | - |
| 1777706124 | 15.56° C | 49% | 1020.7 hPa | 0 mm | - | - | - |
| 1777704923 | 15.56° C | 49% | 1020.5 hPa | 0 mm | - | - | - |
| 1777703143 | 16.11° C | 48% | 1019.3 hPa | 0 mm | - | - | - |
| 1777697123 | 16.67° C | 46% | 1018.9 hPa | 0 mm | - | - | - |
| 1777695943 | 17.22° C | 45% | 1019 hPa | 0 mm | - | - | - |
| 1777693523 | 18.33° C | 45% | 1017.8 hPa | 0 mm | - | - | - |
| 1777691743 | 19.44° C | 41% | 1017.4 hPa | 0 mm | - | - | - |
| 1777689323 | 21.11° C | 37% | 1017.7 hPa | 0 mm | - | - | - |
| 1777686923 | 23.33° C | 31% | 1017.8 hPa | 0 mm | - | - | - |
| 1777686323 | 23.33° C | 29% | 1017.7 hPa | 0 mm | - | - | - |
| 1777685143 | 22.78° C | 32% | 1017.5 hPa | 0 mm | - | - | - |
| 1777682723 | 22.78° C | 33% | 1017.6 hPa | 0 mm | - | - | - |
| 1777682123 | 22.78° C | 30% | 1017.8 hPa | 0 mm | - | - | - |
| 1777678543 | 22.78° C | 29% | 1017.9 hPa | 0 mm | - | - | - |
| 1777677923 | 22.78° C | 29% | 1017.9 hPa | 0 mm | - | - | - |
| 1777677323 | 23.33° C | 28% | 1018.1 hPa | 0 mm | - | - | - |
| 1777676123 | 23.33° C | 28% | 1018.1 hPa | 0 mm | - | - | - |
| 1777675543 | 22.78° C | 29% | 1018 hPa | 0 mm | - | - | - |
| 1777670722 | 22.22° C | 32% | 1019 hPa | 0 mm | - | - | - |
| 1777668922 | 22.22° C | 32% | 1019 hPa | 0 mm | - | - | - |
| 1777664141 | 23.89° C | 29% | 1020.5 hPa | 0 mm | - | - | - |
* Rain latest hour (hover to see other rain measurements)
** Current wind speed in m/s (hover to see current wind gust speed)